sensor_id;sensor_type;location;lat;lon;timestamp;noise_LAeq;noise_LA_min;noise_LA_max;noise_LA01;noise_LA95
56099;Laerm;44276;49.534;6.378;2023-07-31T00:00:14;42.97;26.91;65.32;;
56099;Laerm;44276;49.534;6.378;2023-07-31T00:02:42;44.16;23.55;65.76;;
56099;Laerm;44276;49.534;6.378;2023-07-31T00:05:10;43.37;5.00;68.53;;
56099;Laerm;44276;49.534;6.378;2023-07-31T00:07:38;43.34;30.89;66.74;;
56099;Laerm;44276;49.534;6.378;2023-07-31T00:10:07;43.40;5.00;66.27;;
56099;Laerm;44276;49.534;6.378;2023-07-31T00:12:37;44.34;5.00;65.09;;
56099;Laerm;44276;49.534;6.378;2023-07-31T00:15:07;44.54;32.35;63.75;;
56099;Laerm;44276;49.534;6.378;2023-07-31T00:17:36;45.28;5.00;64.74;;
56099;Laerm;44276;49.534;6.378;2023-07-31T00:20:06;42.39;29.92;61.59;;
56099;Laerm;44276;49.534;6.378;2023-07-31T00:22:35;43.58;30.89;68.69;;
56099;Laerm;44276;49.534;6.378;2023-07-31T00:25:04;45.56;5.00;65.69;;
56099;Laerm;44276;49.534;6.378;2023-07-31T00:27:33;43.28;5.00;64.02;;
56099;Laerm;44276;49.534;6.378;2023-07-31T00:30:01;44.14;5.00;65.09;;
56099;Laerm;44276;49.534;6.378;2023-07-31T00:32:29;42.78;23.90;64.35;;
56099;Laerm;44276;49.534;6.378;2023-07-31T00:34:59;41.48;26.56;63.68;;
56099;Laerm;44276;49.534;6.378;2023-07-31T00:37:27;42.32;23.90;63.58;;
56099;Laerm;44276;49.534;6.378;2023-07-31T00:39:55;42.34;30.54;66.22;;
56099;Laerm;44276;49.534;6.378;2023-07-31T00:42:24;41.53;34.31;55.44;;
56099;Laerm;44276;49.534;6.378;2023-07-31T00:44:52;43.11;28.67;58.46;;
56099;Laerm;44276;49.534;6.378;2023-07-31T00:47:20;42.10;30.89;60.25;;
56099;Laerm;44276;49.534;6.378;2023-07-31T00:49:48;43.79;33.90;65.59;;
56099;Laerm;44276;49.534;6.378;2023-07-31T00:52:19;42.40;33.44;60.61;;
56099;Laerm;44276;49.534;6.378;2023-07-31T00:54:49;41.79;30.89;66.19;;
56099;Laerm;44276;49.534;6.378;2023-07-31T00:57:17;42.70;26.91;63.85;;
56099;Laerm;44276;49.534;6.378;2023-07-31T00:59:45;41.66;5.00;62.52;;
56099;Laerm;44276;49.534;6.378;2023-07-31T01:02:13;40.40;33.90;58.96;;
56099;Laerm;44276;49.534;6.378;2023-07-31T01:04:46;42.03;5.00;65.02;;
56099;Laerm;44276;49.534;6.378;2023-07-31T01:07:27;40.21;35.04;54.33;;
56099;Laerm;44276;49.534;6.378;2023-07-31T01:10:06;40.68;29.92;56.70;;
56099;Laerm;44276;49.534;6.378;2023-07-31T01:12:38;41.62;33.55;61.63;;
56099;Laerm;44276;49.534;6.378;2023-07-31T01:15:09;42.56;30.89;61.78;;
56099;Laerm;44276;49.534;6.378;2023-07-31T01:17:38;42.52;32.93;64.03;;
56099;Laerm;44276;49.534;6.378;2023-07-31T01:20:12;43.07;5.00;62.99;;
56099;Laerm;44276;49.534;6.378;2023-07-31T01:26:05;43.70;5.00;62.49;;
56099;Laerm;44276;49.534;6.378;2023-07-31T01:28:47;42.87;30.89;63.27;;
56099;Laerm;44276;49.534;6.378;2023-07-31T01:31:22;43.89;28.67;61.91;;
56099;Laerm;44276;49.534;6.378;2023-07-31T01:33:54;42.64;5.00;61.30;;
56099;Laerm;44276;49.534;6.378;2023-07-31T01:36:24;42.81;5.00;61.52;;
56099;Laerm;44276;49.534;6.378;2023-07-31T01:38:58;43.02;5.00;64.07;;
56099;Laerm;44276;49.534;6.378;2023-07-31T01:41:28;42.69;37.32;64.31;;
56099;Laerm;44276;49.534;6.378;2023-07-31T01:43:56;42.49;5.00;62.74;;
56099;Laerm;44276;49.534;6.378;2023-07-31T01:46:24;45.48;35.66;64.79;;
56099;Laerm;44276;49.534;6.378;2023-07-31T01:48:53;42.33;5.00;61.16;;
56099;Laerm;44276;49.534;6.378;2023-07-31T01:51:21;41.93;37.52;60.48;;
56099;Laerm;44276;49.534;6.378;2023-07-31T01:53:49;41.75;36.91;58.36;;
56099;Laerm;44276;49.534;6.378;2023-07-31T01:56:17;41.82;37.32;57.15;;
56099;Laerm;44276;49.534;6.378;2023-07-31T01:58:46;41.64;35.94;60.58;;
56099;Laerm;44276;49.534;6.378;2023-07-31T02:01:15;41.29;5.00;62.22;;
56099;Laerm;44276;49.534;6.378;2023-07-31T02:03:43;41.21;35.31;57.53;;
56099;Laerm;44276;49.534;6.378;2023-07-31T02:06:11;41.48;28.67;62.32;;
56099;Laerm;44276;49.534;6.378;2023-07-31T02:08:39;43.18;37.32;62.88;;
56099;Laerm;44276;49.534;6.378;2023-07-31T02:11:07;42.84;5.00;64.36;;
56099;Laerm;44276;49.534;6.378;2023-07-31T02:13:36;42.14;37.88;60.40;;
56099;Laerm;44276;49.534;6.378;2023-07-31T02:16:05;43.37;36.45;63.63;;
56099;Laerm;44276;49.534;6.378;2023-07-31T02:18:33;42.84;37.52;59.24;;
56099;Laerm;44276;49.534;6.378;2023-07-31T02:21:01;41.93;37.53;57.53;;
56099;Laerm;44276;49.534;6.378;2023-07-31T02:23:30;44.20;5.00;63.32;;
56099;Laerm;44276;49.534;6.378;2023-07-31T02:25:58;42.23;37.88;62.33;;
56099;Laerm;44276;49.534;6.378;2023-07-31T02:28:26;44.82;33.44;63.65;;
56099;Laerm;44276;49.534;6.378;2023-07-31T02:30:54;44.33;37.12;60.46;;
56099;Laerm;44276;49.534;6.378;2023-07-31T02:33:24;44.85;26.91;64.90;;
56099;Laerm;44276;49.534;6.378;2023-07-31T02:35:52;41.93;37.70;59.66;;
56099;Laerm;44276;49.534;6.378;2023-07-31T02:38:20;41.84;26.91;63.07;;
56099;Laerm;44276;49.534;6.378;2023-07-31T02:40:48;43.67;34.69;63.86;;
56099;Laerm;44276;49.534;6.378;2023-07-31T02:43:16;42.08;32.93;64.64;;
56099;Laerm;44276;49.534;6.378;2023-07-31T02:45:45;41.50;37.52;58.45;;
56099;Laerm;44276;49.534;6.378;2023-07-31T02:48:13;41.77;38.05;62.63;;
56099;Laerm;44276;49.534;6.378;2023-07-31T02:50:42;42.77;37.70;60.86;;
56099;Laerm;44276;49.534;6.378;2023-07-31T02:53:10;41.62;37.70;56.79;;
56099;Laerm;44276;49.534;6.378;2023-07-31T02:55:38;42.13;36.45;57.74;;
56099;Laerm;44276;49.534;6.378;2023-07-31T02:58:07;42.86;38.21;53.60;;
56099;Laerm;44276;49.534;6.378;2023-07-31T03:00:35;42.14;38.52;59.54;;
56099;Laerm;44276;49.534;6.378;2023-07-31T03:03:03;42.58;38.95;48.76;;
56099;Laerm;44276;49.534;6.378;2023-07-31T03:05:31;42.76;37.32;60.89;;
56099;Laerm;44276;49.534;6.378;2023-07-31T03:08:01;42.43;36.20;58.10;;
56099;Laerm;44276;49.534;6.378;2023-07-31T03:10:30;42.20;37.88;56.84;;
56099;Laerm;44276;49.534;6.378;2023-07-31T03:12:58;41.94;37.88;57.43;;
56099;Laerm;44276;49.534;6.378;2023-07-31T03:15:26;42.01;36.45;60.04;;
56099;Laerm;44276;49.534;6.378;2023-07-31T03:17:54;42.37;38.81;50.20;;
56099;Laerm;44276;49.534;6.378;2023-07-31T03:20:23;42.28;36.56;58.79;;
56099;Laerm;44276;49.534;6.378;2023-07-31T03:22:51;42.93;38.67;59.53;;
56099;Laerm;44276;49.534;6.378;2023-07-31T03:25:20;42.24;38.60;49.93;;
56099;Laerm;44276;49.534;6.378;2023-07-31T03:27:48;42.88;38.67;49.49;;
56099;Laerm;44276;49.534;6.378;2023-07-31T03:30:17;42.53;38.05;60.19;;
56099;Laerm;44276;49.534;6.378;2023-07-31T03:32:45;41.79;38.67;50.85;;
56099;Laerm;44276;49.534;6.378;2023-07-31T03:35:13;41.45;38.81;46.35;;
56099;Laerm;44276;49.534;6.378;2023-07-31T03:37:41;42.74;38.52;52.18;;
56099;Laerm;44276;49.534;6.378;2023-07-31T03:40:11;42.66;39.08;53.17;;
56099;Laerm;44276;49.534;6.378;2023-07-31T03:42:40;42.56;38.52;52.49;;
56099;Laerm;44276;49.534;6.378;2023-07-31T03:45:09;42.69;38.05;53.98;;
56099;Laerm;44276;49.534;6.378;2023-07-31T03:47:38;42.17;38.52;57.82;;
56099;Laerm;44276;49.534;6.378;2023-07-31T03:50:07;42.43;38.95;48.13;;
56099;Laerm;44276;49.534;6.378;2023-07-31T03:52:35;42.38;32.93;57.36;;
56099;Laerm;44276;49.534;6.378;2023-07-31T03:55:05;42.66;39.08;50.18;;
56099;Laerm;44276;49.534;6.378;2023-07-31T03:57:33;44.10;39.70;54.65;;
56099;Laerm;44276;49.534;6.378;2023-07-31T04:00:03;42.15;39.08;51.50;;
56099;Laerm;44276;49.534;6.378;2023-07-31T04:02:31;42.91;39.08;48.18;;
56099;Laerm;44276;49.534;6.378;2023-07-31T04:05:00;43.00;38.81;49.55;;
56099;Laerm;44276;49.534;6.378;2023-07-31T04:07:28;42.19;39.08;46.28;;
56099;Laerm;44276;49.534;6.378;2023-07-31T04:09:57;43.10;39.46;53.06;;
56099;Laerm;44276;49.534;6.378;2023-07-31T04:12:25;42.65;39.08;50.03;;
56099;Laerm;44276;49.534;6.378;2023-07-31T04:14:53;42.79;38.95;50.17;;
56099;Laerm;44276;49.534;6.378;2023-07-31T04:17:23;43.18;39.46;49.77;;
56099;Laerm;44276;49.534;6.378;2023-07-31T04:19:51;43.66;39.46;54.41;;
56099;Laerm;44276;49.534;6.378;2023-07-31T04:22:19;43.58;38.67;54.58;;
56099;Laerm;44276;49.534;6.378;2023-07-31T04:24:47;43.13;39.70;54.34;;
56099;Laerm;44276;49.534;6.378;2023-07-31T04:27:15;42.85;38.21;47.65;;
56099;Laerm;44276;49.534;6.378;2023-07-31T04:29:44;43.09;38.95;49.71;;
56099;Laerm;44276;49.534;6.378;2023-07-31T04:32:13;42.80;39.08;49.96;;
56099;Laerm;44276;49.534;6.378;2023-07-31T04:34:44;43.22;39.34;53.08;;
56099;Laerm;44276;49.534;6.378;2023-07-31T04:37:12;42.82;39.08;51.60;;
56099;Laerm;44276;49.534;6.378;2023-07-31T04:39:41;44.07;39.70;51.77;;
56099;Laerm;44276;49.534;6.378;2023-07-31T04:42:09;43.03;39.08;47.68;;
56099;Laerm;44276;49.534;6.378;2023-07-31T04:44:37;43.52;39.34;52.79;;
56099;Laerm;44276;49.534;6.378;2023-07-31T04:47:05;42.72;38.67;48.88;;
56099;Laerm;44276;49.534;6.378;2023-07-31T04:49:33;43.89;39.46;55.53;;
56099;Laerm;44276;49.534;6.378;2023-07-31T04:52:04;43.87;39.34;52.28;;
56099;Laerm;44276;49.534;6.378;2023-07-31T04:54:32;42.99;38.95;52.13;;
56099;Laerm;44276;49.534;6.378;2023-07-31T04:57:00;43.93;39.58;55.09;;
56099;Laerm;44276;49.534;6.378;2023-07-31T04:59:29;42.67;39.08;54.06;;
56099;Laerm;44276;49.534;6.378;2023-07-31T05:01:58;42.66;38.95;50.96;;
56099;Laerm;44276;49.534;6.378;2023-07-31T05:04:26;44.07;39.70;58.03;;
56099;Laerm;44276;49.534;6.378;2023-07-31T05:06:54;43.47;39.08;53.19;;
56099;Laerm;44276;49.534;6.378;2023-07-31T05:09:24;45.70;39.21;61.86;;
56099;Laerm;44276;49.534;6.378;2023-07-31T05:11:52;44.14;39.08;55.35;;
56099;Laerm;44276;49.534;6.378;2023-07-31T05:14:20;43.96;39.46;57.47;;
56099;Laerm;44276;49.534;6.378;2023-07-31T05:16:48;44.26;39.34;56.62;;
56099;Laerm;44276;49.534;6.378;2023-07-31T05:19:16;43.84;38.95;52.95;;
56099;Laerm;44276;49.534;6.378;2023-07-31T05:21:44;43.80;38.81;53.43;;
56099;Laerm;44276;49.534;6.378;2023-07-31T05:24:13;44.07;39.46;53.42;;
56099;Laerm;44276;49.534;6.378;2023-07-31T05:26:43;43.33;39.46;50.19;;
56099;Laerm;44276;49.534;6.378;2023-07-31T05:29:11;43.56;39.21;57.22;;
56099;Laerm;44276;49.534;6.378;2023-07-31T05:31:39;43.84;39.34;52.84;;
56099;Laerm;44276;49.534;6.378;2023-07-31T05:34:07;43.85;38.81;55.71;;
56099;Laerm;44276;49.534;6.378;2023-07-31T05:36:35;44.27;39.21;55.35;;
56099;Laerm;44276;49.534;6.378;2023-07-31T05:39:04;45.46;39.34;60.55;;
56099;Laerm;44276;49.534;6.378;2023-07-31T05:41:36;44.82;38.95;59.10;;
56099;Laerm;44276;49.534;6.378;2023-07-31T05:44:05;45.83;39.21;57.85;;
56099;Laerm;44276;49.534;6.378;2023-07-31T05:46:34;44.47;39.34;57.05;;
56099;Laerm;44276;49.534;6.378;2023-07-31T05:49:02;44.74;38.52;59.47;;
56099;Laerm;44276;49.534;6.378;2023-07-31T05:51:30;43.86;39.21;65.52;;
56099;Laerm;44276;49.534;6.378;2023-07-31T05:53:58;43.44;39.08;53.90;;
56099;Laerm;44276;49.534;6.378;2023-07-31T05:56:26;42.92;38.37;59.08;;
56099;Laerm;44276;49.534;6.378;2023-07-31T05:58:54;42.65;38.67;51.72;;
56099;Laerm;44276;49.534;6.378;2023-07-31T06:01:25;42.65;38.52;49.00;;
56099;Laerm;44276;49.534;6.378;2023-07-31T06:03:53;43.74;39.08;59.88;;
56099;Laerm;44276;49.534;6.378;2023-07-31T06:06:22;43.64;38.81;58.55;;
56099;Laerm;44276;49.534;6.378;2023-07-31T06:08:50;43.63;38.37;55.20;;
56099;Laerm;44276;49.534;6.378;2023-07-31T06:11:21;43.73;37.88;54.26;;
56099;Laerm;44276;49.534;6.378;2023-07-31T06:13:50;43.16;38.37;55.55;;
56099;Laerm;44276;49.534;6.378;2023-07-31T06:16:18;44.84;39.34;58.36;;
56099;Laerm;44276;49.534;6.378;2023-07-31T06:18:47;43.15;38.21;54.33;;
56099;Laerm;44276;49.534;6.378;2023-07-31T06:21:16;44.59;39.08;61.49;;
56099;Laerm;44276;49.534;6.378;2023-07-31T06:23:44;44.21;38.52;61.47;;
56099;Laerm;44276;49.534;6.378;2023-07-31T06:26:12;44.54;39.21;55.77;;
56099;Laerm;44276;49.534;6.378;2023-07-31T06:28:41;43.35;39.21;52.17;;
56099;Laerm;44276;49.534;6.378;2023-07-31T06:31:10;42.77;38.52;55.43;;
56099;Laerm;44276;49.534;6.378;2023-07-31T06:33:38;44.87;38.52;57.22;;
56099;Laerm;44276;49.534;6.378;2023-07-31T06:36:07;43.55;39.08;54.19;;
56099;Laerm;44276;49.534;6.378;2023-07-31T06:38:36;43.46;38.81;55.85;;
56099;Laerm;44276;49.534;6.378;2023-07-31T06:41:04;44.82;39.46;57.83;;
56099;Laerm;44276;49.534;6.378;2023-07-31T06:43:32;45.33;40.43;55.27;;
56099;Laerm;44276;49.534;6.378;2023-07-31T06:46:05;42.74;37.88;53.98;;
56099;Laerm;44276;49.534;6.378;2023-07-31T06:48:33;47.46;38.37;67.44;;
56099;Laerm;44276;49.534;6.378;2023-07-31T06:51:03;47.22;38.05;64.93;;
56099;Laerm;44276;49.534;6.378;2023-07-31T06:53:33;44.79;38.21;58.17;;
56099;Laerm;44276;49.534;6.378;2023-07-31T06:56:01;43.40;39.08;55.04;;
56099;Laerm;44276;49.534;6.378;2023-07-31T06:58:29;47.19;38.67;63.48;;
56099;Laerm;44276;49.534;6.378;2023-07-31T07:00:57;43.25;37.88;57.67;;
56099;Laerm;44276;49.534;6.378;2023-07-31T07:03:25;43.76;38.67;55.35;;
56099;Laerm;44276;49.534;6.378;2023-07-31T07:05:53;43.18;37.12;53.21;;
56099;Laerm;44276;49.534;6.378;2023-07-31T07:08:22;43.72;38.52;54.66;;
56099;Laerm;44276;49.534;6.378;2023-07-31T07:10:54;44.31;38.37;61.88;;
56099;Laerm;44276;49.534;6.378;2023-07-31T07:13:22;47.29;36.69;62.19;;
56099;Laerm;44276;49.534;6.378;2023-07-31T07:15:51;44.82;38.52;61.03;;
56099;Laerm;44276;49.534;6.378;2023-07-31T07:18:19;45.80;38.52;61.87;;
56099;Laerm;44276;49.534;6.378;2023-07-31T07:20:50;45.15;38.05;60.91;;
56099;Laerm;44276;49.534;6.378;2023-07-31T07:23:20;54.42;37.32;70.10;;
56099;Laerm;44276;49.534;6.378;2023-07-31T07:25:48;49.97;39.68;68.45;;
56099;Laerm;44276;49.534;6.378;2023-07-31T07:28:18;51.26;39.58;67.17;;
56099;Laerm;44276;49.534;6.378;2023-07-31T07:30:51;49.99;38.05;70.00;;
56099;Laerm;44276;49.534;6.378;2023-07-31T07:33:20;46.54;40.03;63.98;;
56099;Laerm;44276;49.534;6.378;2023-07-31T07:35:48;45.45;35.94;64.91;;
56099;Laerm;44276;49.534;6.378;2023-07-31T07:38:16;47.26;38.32;64.28;;
56099;Laerm;44276;49.534;6.378;2023-07-31T07:40:46;46.56;38.67;60.31;;
56099;Laerm;44276;49.534;6.378;2023-07-31T07:43:18;45.49;36.20;62.15;;
56099;Laerm;44276;49.534;6.378;2023-07-31T07:45:46;47.86;37.52;62.45;;
56099;Laerm;44276;49.534;6.378;2023-07-31T07:48:14;47.41;39.92;62.90;;
56099;Laerm;44276;49.534;6.378;2023-07-31T07:50:44;52.12;35.36;67.07;;
56099;Laerm;44276;49.534;6.378;2023-07-31T07:53:12;53.63;37.12;71.64;;
56099;Laerm;44276;49.534;6.378;2023-07-31T07:55:40;47.76;39.81;61.05;;
56099;Laerm;44276;49.534;6.378;2023-07-31T07:58:08;44.68;38.37;56.02;;
56099;Laerm;44276;49.534;6.378;2023-07-31T08:00:38;45.56;38.52;60.37;;
56099;Laerm;44276;49.534;6.378;2023-07-31T08:03:06;50.93;39.81;67.02;;
56099;Laerm;44276;49.534;6.378;2023-07-31T08:05:34;52.47;38.81;70.94;;
56099;Laerm;44276;49.534;6.378;2023-07-31T08:08:03;49.68;38.21;67.20;;
56099;Laerm;44276;49.534;6.378;2023-07-31T08:10:31;54.22;40.23;69.53;;
56099;Laerm;44276;49.534;6.378;2023-07-31T08:12:59;57.36;40.13;73.41;;
56099;Laerm;44276;49.534;6.378;2023-07-31T08:15:27;53.96;38.52;70.76;;
56099;Laerm;44276;49.534;6.378;2023-07-31T08:17:57;46.04;36.91;59.83;;
56099;Laerm;44276;49.534;6.378;2023-07-31T08:20:27;51.79;39.78;65.38;;
56099;Laerm;44276;49.534;6.378;2023-07-31T08:22:55;49.38;37.70;65.72;;
56099;Laerm;44276;49.534;6.378;2023-07-31T08:25:23;55.37;40.23;71.83;;
56099;Laerm;44276;49.534;6.378;2023-07-31T08:27:51;56.24;40.27;73.57;;
56099;Laerm;44276;49.534;6.378;2023-07-31T08:30:20;46.38;34.31;64.80;;
56099;Laerm;44276;49.534;6.378;2023-07-31T08:32:49;52.72;39.58;68.51;;
56099;Laerm;44276;49.534;6.378;2023-07-31T08:35:19;48.12;40.33;65.05;;
56099;Laerm;44276;49.534;6.378;2023-07-31T08:37:47;50.44;34.69;67.23;;
56099;Laerm;44276;49.534;6.378;2023-07-31T08:40:15;49.53;36.20;68.16;;
56099;Laerm;44276;49.534;6.378;2023-07-31T08:42:45;49.24;37.32;69.29;;
56099;Laerm;44276;49.534;6.378;2023-07-31T08:45:15;48.23;38.60;62.29;;
56099;Laerm;44276;49.534;6.378;2023-07-31T08:47:45;54.23;38.95;71.05;;
56099;Laerm;44276;49.534;6.378;2023-07-31T08:50:19;55.04;38.67;69.55;;
56099;Laerm;44276;49.534;6.378;2023-07-31T08:52:49;56.12;39.92;73.20;;
56099;Laerm;44276;49.534;6.378;2023-07-31T08:55:18;53.31;37.88;68.88;;
56099;Laerm;44276;49.534;6.378;2023-07-31T08:57:51;47.53;39.81;62.14;;
56099;Laerm;44276;49.534;6.378;2023-07-31T09:00:21;51.92;38.67;69.78;;
56099;Laerm;44276;49.534;6.378;2023-07-31T09:02:57;55.95;39.92;70.68;;
56099;Laerm;44276;49.534;6.378;2023-07-31T09:05:30;48.63;39.34;62.82;;
56099;Laerm;44276;49.534;6.378;2023-07-31T09:08:00;49.54;38.60;67.32;;
56099;Laerm;44276;49.534;6.378;2023-07-31T09:10:29;47.15;39.21;59.11;;
56099;Laerm;44276;49.534;6.378;2023-07-31T09:12:58;46.19;37.70;59.57;;
56099;Laerm;44276;49.534;6.378;2023-07-31T09:15:28;51.97;37.88;75.10;;
56099;Laerm;44276;49.534;6.378;2023-07-31T09:18:06;47.77;38.95;66.00;;
56099;Laerm;44276;49.534;6.378;2023-07-31T09:20:36;44.79;38.81;65.29;;
56099;Laerm;44276;49.534;6.378;2023-07-31T09:23:08;51.50;36.45;70.07;;
56099;Laerm;44276;49.534;6.378;2023-07-31T09:25:37;53.08;40.62;68.67;;
56099;Laerm;44276;49.534;6.378;2023-07-31T09:28:07;50.02;37.70;63.68;;
56099;Laerm;44276;49.534;6.378;2023-07-31T09:30:48;52.90;38.95;68.33;;
56099;Laerm;44276;49.534;6.378;2023-07-31T09:33:17;52.51;38.81;67.09;;
56099;Laerm;44276;49.534;6.378;2023-07-31T09:35:47;49.67;38.21;65.29;;
56099;Laerm;44276;49.534;6.378;2023-07-31T09:38:16;46.72;37.12;61.93;;
56099;Laerm;44276;49.534;6.378;2023-07-31T09:40:46;45.88;37.88;62.15;;
56099;Laerm;44276;49.534;6.378;2023-07-31T09:43:19;49.12;39.58;65.53;;
56099;Laerm;44276;49.534;6.378;2023-07-31T09:45:52;47.43;38.05;64.04;;
56099;Laerm;44276;49.534;6.378;2023-07-31T09:48:24;54.22;35.36;69.95;;
56099;Laerm;44276;49.534;6.378;2023-07-31T09:50:55;48.58;38.05;62.76;;
56099;Laerm;44276;49.534;6.378;2023-07-31T09:53:29;48.73;39.21;66.90;;
56099;Laerm;44276;49.534;6.378;2023-07-31T09:55:59;49.77;37.70;69.12;;
56099;Laerm;44276;49.534;6.378;2023-07-31T09:58:29;58.97;42.03;74.77;;
56099;Laerm;44276;49.534;6.378;2023-07-31T10:00:58;51.14;38.05;65.19;;
56099;Laerm;44276;49.534;6.378;2023-07-31T10:03:29;53.96;39.70;71.37;;
56099;Laerm;44276;49.534;6.378;2023-07-31T10:06:03;55.05;39.21;73.60;;
56099;Laerm;44276;49.534;6.378;2023-07-31T10:08:36;49.35;39.92;66.23;;
56099;Laerm;44276;49.534;6.378;2023-07-31T10:11:05;54.02;37.88;70.04;;
56099;Laerm;44276;49.534;6.378;2023-07-31T10:13:36;55.41;37.70;72.31;;
56099;Laerm;44276;49.534;6.378;2023-07-31T10:16:05;46.77;39.58;63.51;;
56099;Laerm;44276;49.534;6.378;2023-07-31T10:18:35;46.92;39.81;60.37;;
56099;Laerm;44276;49.534;6.378;2023-07-31T10:21:06;50.43;39.46;67.82;;
56099;Laerm;44276;49.534;6.378;2023-07-31T10:23:35;55.87;39.46;72.18;;
56099;Laerm;44276;49.534;6.378;2023-07-31T10:26:05;53.82;39.58;69.46;;
56099;Laerm;44276;49.534;6.378;2023-07-31T10:28:37;49.86;38.21;64.26;;
56099;Laerm;44276;49.534;6.378;2023-07-31T10:31:06;51.33;39.81;67.04;;
56099;Laerm;44276;49.534;6.378;2023-07-31T10:33:35;59.24;39.34;74.24;;
56099;Laerm;44276;49.534;6.378;2023-07-31T10:36:17;49.93;39.34;65.95;;
56099;Laerm;44276;49.534;6.378;2023-07-31T10:38:49;44.88;37.32;58.53;;
56099;Laerm;44276;49.534;6.378;2023-07-31T10:41:18;51.26;40.03;68.15;;
56099;Laerm;44276;49.534;6.378;2023-07-31T10:43:46;48.47;36.69;68.62;;
56099;Laerm;44276;49.534;6.378;2023-07-31T10:46:15;53.38;38.21;67.54;;
56099;Laerm;44276;49.534;6.378;2023-07-31T10:48:43;54.51;38.05;69.25;;
56099;Laerm;44276;49.534;6.378;2023-07-31T10:51:14;48.53;36.91;65.84;;
56099;Laerm;44276;49.534;6.378;2023-07-31T10:53:43;47.72;38.21;64.89;;
56099;Laerm;44276;49.534;6.378;2023-07-31T10:56:11;52.03;40.03;70.54;;
56099;Laerm;44276;49.534;6.378;2023-07-31T10:58:45;50.53;37.12;63.36;;
56099;Laerm;44276;49.534;6.378;2023-07-31T11:01:13;52.02;35.66;64.93;;
56099;Laerm;44276;49.534;6.378;2023-07-31T11:03:45;53.84;38.81;69.69;;
56099;Laerm;44276;49.534;6.378;2023-07-31T11:06:17;52.56;39.34;67.56;;
56099;Laerm;44276;49.534;6.378;2023-07-31T11:08:47;49.24;39.58;62.59;;
56099;Laerm;44276;49.534;6.378;2023-07-31T11:11:18;50.47;38.37;65.77;;
56099;Laerm;44276;49.534;6.378;2023-07-31T11:13:48;49.42;36.20;68.60;;
56099;Laerm;44276;49.534;6.378;2023-07-31T11:16:19;48.80;39.21;68.13;;
56099;Laerm;44276;49.534;6.378;2023-07-31T11:18:48;49.06;37.70;66.52;;
56099;Laerm;44276;49.534;6.378;2023-07-31T11:21:22;47.14;38.95;61.90;;
56099;Laerm;44276;49.534;6.378;2023-07-31T11:23:53;52.10;40.23;66.36;;
56099;Laerm;44276;49.534;6.378;2023-07-31T11:26:25;51.54;39.34;67.85;;
56099;Laerm;44276;49.534;6.378;2023-07-31T11:28:53;53.00;38.47;71.01;;
56099;Laerm;44276;49.534;6.378;2023-07-31T11:31:22;54.40;38.37;73.32;;
56099;Laerm;44276;49.534;6.378;2023-07-31T11:33:50;54.03;39.58;70.26;;
56099;Laerm;44276;49.534;6.378;2023-07-31T11:36:20;52.29;39.34;69.53;;
56099;Laerm;44276;49.534;6.378;2023-07-31T11:38:48;46.84;37.32;62.69;;
56099;Laerm;44276;49.534;6.378;2023-07-31T11:41:18;51.18;40.03;66.19;;
56099;Laerm;44276;49.534;6.378;2023-07-31T11:43:47;52.86;39.81;68.85;;
56099;Laerm;44276;49.534;6.378;2023-07-31T11:46:15;54.45;38.81;72.78;;
56099;Laerm;44276;49.534;6.378;2023-07-31T11:48:44;47.71;35.04;65.11;;
56099;Laerm;44276;49.534;6.378;2023-07-31T11:51:14;49.06;39.46;64.57;;
56099;Laerm;44276;49.534;6.378;2023-07-31T11:53:48;50.07;39.81;63.95;;
56099;Laerm;44276;49.534;6.378;2023-07-31T11:56:19;46.13;35.01;61.28;;
56099;Laerm;44276;49.534;6.378;2023-07-31T11:58:53;47.39;37.52;59.72;;
56099;Laerm;44276;49.534;6.378;2023-07-31T12:01:22;51.25;39.81;62.92;;
56099;Laerm;44276;49.534;6.378;2023-07-31T12:03:52;50.38;39.58;65.05;;
56099;Laerm;44276;49.534;6.378;2023-07-31T12:06:21;52.09;40.13;69.11;;
56099;Laerm;44276;49.534;6.378;2023-07-31T12:08:50;57.42;40.98;74.30;;
56099;Laerm;44276;49.534;6.378;2023-07-31T12:11:19;53.05;39.21;69.39;;
56099;Laerm;44276;49.534;6.378;2023-07-31T12:13:47;48.65;40.23;64.31;;
56099;Laerm;44276;49.534;6.378;2023-07-31T12:16:32;55.06;40.23;71.63;;
56099;Laerm;44276;49.534;6.378;2023-07-31T12:19:02;50.30;40.43;64.72;;
56099;Laerm;44276;49.534;6.378;2023-07-31T12:21:30;50.60;41.38;66.80;;
56099;Laerm;44276;49.534;6.378;2023-07-31T12:23:59;50.64;41.41;65.95;;
56099;Laerm;44276;49.534;6.378;2023-07-31T12:26:34;45.03;40.62;55.00;;
56099;Laerm;44276;49.534;6.378;2023-07-31T12:29:07;45.04;40.53;56.79;;
56099;Laerm;44276;49.534;6.378;2023-07-31T12:31:35;43.32;40.71;49.33;;
56099;Laerm;44276;49.534;6.378;2023-07-31T12:34:15;43.53;40.71;56.31;;
56099;Laerm;44276;49.534;6.378;2023-07-31T12:36:43;43.15;40.80;48.32;;
56099;Laerm;44276;49.534;6.378;2023-07-31T12:39:14;42.76;40.33;46.95;;
56099;Laerm;44276;49.534;6.378;2023-07-31T12:41:42;42.77;40.43;48.57;;
56099;Laerm;44276;49.534;6.378;2023-07-31T12:44:10;42.74;40.62;45.57;;
56099;Laerm;44276;49.534;6.378;2023-07-31T12:46:39;43.00;40.53;47.65;;
56099;Laerm;44276;49.534;6.378;2023-07-31T12:49:07;42.93;40.62;49.69;;
56099;Laerm;44276;49.534;6.378;2023-07-31T12:51:36;43.30;40.80;45.72;;
56099;Laerm;44276;49.534;6.378;2023-07-31T12:54:04;43.26;40.43;47.57;;
56099;Laerm;44276;49.534;6.378;2023-07-31T12:56:34;43.38;40.03;50.35;;
56099;Laerm;44276;49.534;6.378;2023-07-31T12:59:02;42.77;39.58;46.59;;
56099;Laerm;44276;49.534;6.378;2023-07-31T13:01:30;43.48;39.92;51.85;;
56099;Laerm;44276;49.534;6.378;2023-07-31T13:03:59;43.20;39.70;46.33;;
56099;Laerm;44276;49.534;6.378;2023-07-31T13:06:27;43.28;39.46;49.08;;
56099;Laerm;44276;49.534;6.378;2023-07-31T13:08:55;42.72;39.34;45.94;;
56099;Laerm;44276;49.534;6.378;2023-07-31T13:11:23;42.98;39.58;50.63;;
56099;Laerm;44276;49.534;6.378;2023-07-31T13:13:53;43.29;39.34;56.60;;
56099;Laerm;44276;49.534;6.378;2023-07-31T13:16:21;43.05;39.08;48.45;;
56099;Laerm;44276;49.534;6.378;2023-07-31T13:18:49;43.36;39.21;49.73;;
56099;Laerm;44276;49.534;6.378;2023-07-31T13:21:18;43.15;38.95;49.88;;
56099;Laerm;44276;49.534;6.378;2023-07-31T13:23:48;44.22;38.67;52.25;;
56099;Laerm;44276;49.534;6.378;2023-07-31T13:26:16;43.33;38.81;55.29;;
56099;Laerm;44276;49.534;6.378;2023-07-31T13:28:44;43.29;38.81;50.47;;
56099;Laerm;44276;49.534;6.378;2023-07-31T13:31:14;43.61;38.37;56.64;;
56099;Laerm;44276;49.534;6.378;2023-07-31T13:33:42;43.19;38.37;53.13;;
56099;Laerm;44276;49.534;6.378;2023-07-31T13:36:11;43.81;31.68;62.60;;
56099;Laerm;44276;49.534;6.378;2023-07-31T13:38:41;43.66;37.12;50.25;;
56099;Laerm;44276;49.534;6.378;2023-07-31T13:41:09;45.60;35.36;57.65;;
56099;Laerm;44276;49.534;6.378;2023-07-31T13:43:37;45.03;39.58;53.54;;
56099;Laerm;44276;49.534;6.378;2023-07-31T13:46:05;43.98;37.32;61.18;;
56099;Laerm;44276;49.534;6.378;2023-07-31T13:48:36;45.72;38.95;60.29;;
56099;Laerm;44276;49.534;6.378;2023-07-31T13:51:04;45.41;39.70;61.55;;
56099;Laerm;44276;49.534;6.378;2023-07-31T13:53:33;45.89;38.81;60.58;;
56099;Laerm;44276;49.534;6.378;2023-07-31T13:56:01;45.42;39.81;59.32;;
56099;Laerm;44276;49.534;6.378;2023-07-31T13:58:29;45.66;40.03;60.84;;